EIN782 EIDW-GCLP
Flight info
| Callsign | EIN782 |
|---|---|
| Flight time | 3h 57m |
| Altitude | 37000 |
| Route | BEPAN4E BEPAN DCT BANBA DCT PAVLO/N0443F380 DCT AMPOP/N0448F390 DCT SOSOV DCT DEMOS DCT BEXAL DCT SAMAR |
| Aircraft | A20N/M-SDE2E3FGHIRWXY/LB1 |
Departure
| Time | 2026-05-04 16:19 |
|---|---|
| Airport | Dublin Airport (EIDW) |
Arrival
| Time | 2026-05-04 20:16 |
|---|---|
| Airport | Gran Canaria Airport (GCLP) |
| Time | Latitude | Longitude | Altitude | Speed | Heading |
|---|---|---|---|---|---|
| 2026-05-04 15:22 | 53.42405 | -6.24154 | 214 ft | 0 kts | 323° |
| 2026-05-04 16:01 | 53.42393 | -6.24138 | 218 ft | 2 kts | 324° |
| 2026-05-04 16:01 | 53.42379 | -6.24122 | 214 ft | 2 kts | 324° |
| 2026-05-04 16:01 | 53.42366 | -6.24105 | 214 ft | 2 kts | 322° |
| 2026-05-04 16:02 | 53.42353 | -6.24088 | 217 ft | 2 kts | 323° |
| 2026-05-04 16:02 | 53.42342 | -6.24068 | 220 ft | 2 kts | 268° |
| 2026-05-04 16:02 | 53.42355 | -6.24034 | 220 ft | 1 kts | 223° |
| 2026-05-04 16:07 | 53.42354 | -6.24034 | 214 ft | 0 kts | 223° |
| 2026-05-04 16:07 | 53.42283 | -6.24154 | 214 ft | 11 kts | 225° |
| 2026-05-04 16:08 | 53.42230 | -6.24250 | 214 ft | 11 kts | 229° |
| 2026-05-04 16:08 | 53.42171 | -6.24563 | 214 ft | 9 kts | 275° |
| 2026-05-04 16:09 | 53.42183 | -6.24763 | 214 ft | 9 kts | 276° |
| 2026-05-04 16:09 | 53.42196 | -6.25030 | 214 ft | 14 kts | 275° |
| 2026-05-04 16:10 | 53.42216 | -6.25374 | 218 ft | 15 kts | 275° |
| 2026-05-04 16:11 | 53.42247 | -6.25950 | 214 ft | 18 kts | 275° |
| 2026-05-04 16:11 | 53.42258 | -6.26155 | 214 ft | 18 kts | 275° |
| 2026-05-04 16:12 | 53.42293 | -6.26779 | 214 ft | 18 kts | 275° |
| 2026-05-04 16:12 | 53.42330 | -6.27450 | 214 ft | 20 kts | 275° |
| 2026-05-04 16:13 | 53.42354 | -6.27897 | 218 ft | 19 kts | 275° |
| 2026-05-04 16:13 | 53.42379 | -6.28346 | 222 ft | 19 kts | 275° |
| 2026-05-04 16:14 | 53.42403 | -6.28786 | 214 ft | 19 kts | 275° |
| 2026-05-04 16:14 | 53.42368 | -6.29067 | 213 ft | 8 kts | 205° |
| 2026-05-04 16:15 | 53.42358 | -6.29073 | 213 ft | 0 kts | 198° |
| 2026-05-04 16:16 | 53.42357 | -6.29073 | 213 ft | 0 kts | 198° |
| 2026-05-04 16:17 | 53.42278 | -6.29065 | 212 ft | 10 kts | 171° |
| 2026-05-04 16:18 | 53.42238 | -6.28919 | 217 ft | 22 kts | 95° |
| 2026-05-04 16:18 | 53.42203 | -6.28274 | 216 ft | 88 kts | 95° |
| 2026-05-04 16:19 | 53.41933 | -6.23109 | 1363 ft | 169 kts | 92° |
| 2026-05-04 16:19 | 53.41735 | -6.19647 | 2476 ft | 192 kts | 93° |
| 2026-05-04 16:20 | 53.41306 | -6.11874 | 3951 ft | 257 kts | 94° |
| 2026-05-04 16:20 | 53.40945 | -6.05726 | 5598 ft | 270 kts | 98° |
| 2026-05-04 16:21 | 53.37331 | -5.99304 | 8038 ft | 278 kts | 176° |
| 2026-05-04 16:22 | 53.33461 | -6.00092 | 9029 ft | 284 kts | 192° |
| 2026-05-04 16:22 | 53.27636 | -6.02258 | 9102 ft | 287 kts | 197° |
| 2026-05-04 16:23 | 53.21739 | -6.05282 | 10781 ft | 315 kts | 197° |
| 2026-05-04 16:24 | 53.12529 | -6.07623 | 13531 ft | 347 kts | 187° |
| 2026-05-04 16:25 | 53.07818 | -6.09805 | 14970 ft | 357 kts | 199° |
| 2026-05-04 16:26 | 52.98281 | -6.15499 | 17757 ft | 373 kts | 199° |
| 2026-05-04 16:26 | 52.90644 | -6.18468 | 19041 ft | 379 kts | 186° |
| 2026-05-04 16:27 | 52.85415 | -6.19540 | 19059 ft | 381 kts | 185° |
| 2026-05-04 16:28 | 52.77521 | -6.21176 | 19060 ft | 381 kts | 186° |
| 2026-05-04 16:28 | 52.69630 | -6.22831 | 19055 ft | 380 kts | 185° |
| 2026-05-04 16:29 | 52.59139 | -6.25026 | 19059 ft | 380 kts | 185° |
| 2026-05-04 16:30 | 52.51268 | -6.26354 | 19085 ft | 378 kts | 179° |
| 2026-05-04 16:31 | 52.45965 | -6.26250 | 20119 ft | 383 kts | 176° |
| 2026-05-04 16:31 | 52.37885 | -6.25768 | 21901 ft | 392 kts | 175° |
| 2026-05-04 16:32 | 52.29603 | -6.25365 | 23518 ft | 402 kts | 176° |
| 2026-05-04 16:33 | 52.23965 | -6.25124 | 24406 ft | 408 kts | 175° |
| 2026-05-04 16:33 | 52.18289 | -6.24884 | 25237 ft | 413 kts | 175° |
| 2026-05-04 16:34 | 52.12511 | -6.24638 | 26067 ft | 417 kts | 175° |
| 2026-05-04 16:34 | 52.09595 | -6.24514 | 26455 ft | 420 kts | 175° |
| 2026-05-04 16:35 | 52.00767 | -6.24137 | 27608 ft | 426 kts | 175° |
| 2026-05-04 16:35 | 51.91919 | -6.22739 | 28676 ft | 428 kts | 166° |
| 2026-05-04 16:36 | 51.88990 | -6.21811 | 29034 ft | 430 kts | 165° |
| 2026-05-04 16:36 | 51.83119 | -6.19790 | 29702 ft | 433 kts | 164° |
| 2026-05-04 16:37 | 51.77203 | -6.17716 | 30333 ft | 436 kts | 165° |
| 2026-05-04 16:37 | 51.74234 | -6.16686 | 30588 ft | 438 kts | 165° |
| 2026-05-04 16:37 | 51.68244 | -6.14631 | 31223 ft | 438 kts | 165° |
| 2026-05-04 16:38 | 51.62287 | -6.12606 | 31924 ft | 436 kts | 166° |
| 2026-05-04 16:39 | 51.53389 | -6.09590 | 32884 ft | 435 kts | 166° |
| 2026-05-04 16:39 | 51.47508 | -6.07601 | 33518 ft | 434 kts | 166° |
| 2026-05-04 16:40 | 51.41606 | -6.05610 | 34090 ft | 432 kts | 167° |
| 2026-05-04 16:40 | 51.35717 | -6.03630 | 34509 ft | 432 kts | 167° |
| 2026-05-04 16:41 | 51.29824 | -6.01652 | 34924 ft | 432 kts | 167° |
| 2026-05-04 16:41 | 51.20979 | -5.98694 | 35493 ft | 433 kts | 167° |
| 2026-05-04 16:42 | 51.12061 | -5.95723 | 35505 ft | 444 kts | 166° |
| 2026-05-04 16:43 | 51.06056 | -5.93730 | 36045 ft | 440 kts | 166° |
| 2026-05-04 16:43 | 51.00070 | -5.91748 | 36421 ft | 439 kts | 167° |
| 2026-05-04 16:43 | 50.97081 | -5.90761 | 36596 ft | 439 kts | 167° |
| 2026-05-04 16:44 | 50.84857 | -5.91037 | 37225 ft | 442 kts | 185° |
| 2026-05-04 16:45 | 50.78747 | -5.92222 | 37514 ft | 442 kts | 186° |
| 2026-05-04 16:46 | 50.69620 | -5.93998 | 37948 ft | 442 kts | 186° |
| 2026-05-04 16:46 | 50.63510 | -5.95139 | 38009 ft | 439 kts | 186° |
| 2026-05-04 16:47 | 50.51425 | -5.97361 | 38012 ft | 438 kts | 186° |
| 2026-05-04 16:48 | 50.39312 | -5.99580 | 38008 ft | 438 kts | 186° |
| 2026-05-04 16:49 | 50.27223 | -6.01785 | 38012 ft | 438 kts | 186° |
| 2026-05-04 16:50 | 50.15095 | -6.03986 | 38015 ft | 438 kts | 186° |
| 2026-05-04 16:51 | 50.06008 | -6.05627 | 38016 ft | 438 kts | 186° |
| 2026-05-04 16:52 | 49.93880 | -6.07808 | 38024 ft | 438 kts | 186° |
| 2026-05-04 16:53 | 49.84789 | -6.09435 | 38015 ft | 438 kts | 186° |
| 2026-05-04 16:54 | 49.72705 | -6.11589 | 38011 ft | 438 kts | 186° |
| 2026-05-04 16:55 | 49.54521 | -6.14830 | 37997 ft | 438 kts | 188° |
| 2026-05-04 16:56 | 49.39654 | -6.20583 | 38436 ft | 443 kts | 195° |
| 2026-05-04 16:57 | 49.36681 | -6.21834 | 38541 ft | 443 kts | 195° |
| 2026-05-04 16:57 | 49.30726 | -6.24322 | 38740 ft | 444 kts | 194° |
| 2026-05-04 16:58 | 49.21774 | -6.28023 | 38954 ft | 445 kts | 194° |
| 2026-05-04 16:58 | 49.18781 | -6.29254 | 38995 ft | 446 kts | 194° |
| 2026-05-04 17:00 | 49.00527 | -6.36732 | 38995 ft | 461 kts | 194° |
| 2026-05-04 17:01 | 48.84861 | -6.43106 | 38994 ft | 468 kts | 194° |
| 2026-05-04 17:02 | 48.72279 | -6.48196 | 38993 ft | 467 kts | 194° |
| 2026-05-04 17:03 | 48.62878 | -6.51982 | 38994 ft | 468 kts | 194° |
| 2026-05-04 17:03 | 48.53427 | -6.55774 | 38994 ft | 468 kts | 194° |
| 2026-05-04 17:04 | 48.40885 | -6.60782 | 38992 ft | 468 kts | 194° |
| 2026-05-04 17:05 | 48.28271 | -6.65793 | 38995 ft | 468 kts | 194° |
| 2026-05-04 17:06 | 48.18848 | -6.69520 | 38993 ft | 468 kts | 194° |
| 2026-05-04 17:07 | 48.11518 | -6.72410 | 38991 ft | 468 kts | 194° |
| 2026-05-04 17:07 | 48.04144 | -6.75308 | 38991 ft | 468 kts | 194° |
| 2026-05-04 17:08 | 47.94690 | -6.79012 | 38989 ft | 468 kts | 194° |
| 2026-05-04 17:09 | 47.88410 | -6.81464 | 38992 ft | 468 kts | 194° |
| 2026-05-04 17:09 | 47.82100 | -6.83921 | 38988 ft | 468 kts | 194° |
| 2026-05-04 17:10 | 47.66362 | -6.90025 | 38986 ft | 468 kts | 194° |
| 2026-05-04 17:11 | 47.60048 | -6.92462 | 38989 ft | 468 kts | 194° |
| 2026-05-04 17:12 | 47.50580 | -6.96107 | 38984 ft | 469 kts | 194° |
| 2026-05-04 17:13 | 47.34822 | -7.02142 | 38987 ft | 469 kts | 194° |
| 2026-05-04 17:14 | 47.22186 | -7.06954 | 38982 ft | 469 kts | 194° |
| 2026-05-04 17:15 | 47.12692 | -7.10555 | 38983 ft | 469 kts | 194° |
| 2026-05-04 17:16 | 47.00070 | -7.15321 | 38983 ft | 470 kts | 194° |
| 2026-05-04 17:17 | 46.87391 | -7.20085 | 38983 ft | 470 kts | 194° |
| 2026-05-04 17:18 | 46.74758 | -7.24809 | 38984 ft | 470 kts | 194° |
| 2026-05-04 17:19 | 46.62082 | -7.29526 | 38983 ft | 469 kts | 194° |
| 2026-05-04 17:20 | 46.49411 | -7.34218 | 38983 ft | 470 kts | 194° |
| 2026-05-04 17:20 | 46.39944 | -7.37709 | 38981 ft | 470 kts | 194° |
| 2026-05-04 17:21 | 46.27272 | -7.42363 | 38984 ft | 470 kts | 195° |
| 2026-05-04 17:22 | 46.20926 | -7.44685 | 38982 ft | 470 kts | 195° |
| 2026-05-04 17:23 | 46.08277 | -7.49297 | 38984 ft | 470 kts | 195° |
| 2026-05-04 17:24 | 45.98768 | -7.52750 | 38985 ft | 470 kts | 195° |
| 2026-05-04 17:25 | 45.86087 | -7.57335 | 38985 ft | 469 kts | 195° |
| 2026-05-04 17:26 | 45.73408 | -7.61899 | 38983 ft | 470 kts | 195° |
| 2026-05-04 17:27 | 45.57560 | -7.67573 | 38988 ft | 470 kts | 195° |
| 2026-05-04 17:28 | 45.44913 | -7.72077 | 38988 ft | 470 kts | 195° |
| 2026-05-04 17:29 | 45.25870 | -7.78820 | 38988 ft | 469 kts | 195° |
| 2026-05-04 17:31 | 45.10050 | -7.84387 | 38991 ft | 469 kts | 195° |
| 2026-05-04 17:32 | 44.94328 | -7.90521 | 38992 ft | 468 kts | 200° |
| 2026-05-04 17:33 | 44.82086 | -7.96723 | 38999 ft | 468 kts | 201° |
| 2026-05-04 17:34 | 44.69817 | -8.02952 | 39002 ft | 468 kts | 201° |
| 2026-05-04 17:35 | 44.54525 | -8.10647 | 39002 ft | 467 kts | 201° |
| 2026-05-04 17:36 | 44.48390 | -8.13722 | 39007 ft | 468 kts | 201° |
| 2026-05-04 17:36 | 44.42254 | -8.16791 | 39008 ft | 467 kts | 201° |
| 2026-05-04 17:37 | 44.36128 | -8.19849 | 39009 ft | 467 kts | 201° |
| 2026-05-04 17:37 | 44.30038 | -8.22881 | 39013 ft | 467 kts | 201° |
| 2026-05-04 17:38 | 44.23905 | -8.25928 | 39015 ft | 467 kts | 201° |
| 2026-05-04 17:38 | 44.17776 | -8.28967 | 39012 ft | 467 kts | 201° |
| 2026-05-04 17:39 | 44.08571 | -8.33517 | 39021 ft | 467 kts | 201° |
| 2026-05-04 17:39 | 44.02435 | -8.36543 | 39023 ft | 467 kts | 201° |
| 2026-05-04 17:40 | 43.96338 | -8.39542 | 39025 ft | 467 kts | 201° |
| 2026-05-04 17:40 | 43.90203 | -8.42553 | 39026 ft | 467 kts | 201° |
| 2026-05-04 17:41 | 43.84064 | -8.45560 | 39031 ft | 467 kts | 201° |
| 2026-05-04 17:41 | 43.77941 | -8.48553 | 39032 ft | 467 kts | 201° |
| 2026-05-04 17:42 | 43.71847 | -8.51524 | 39031 ft | 467 kts | 201° |
| 2026-05-04 17:42 | 43.65718 | -8.54507 | 39032 ft | 466 kts | 201° |
| 2026-05-04 17:43 | 43.59593 | -8.57481 | 39036 ft | 466 kts | 202° |
| 2026-05-04 17:43 | 43.53466 | -8.60449 | 39039 ft | 466 kts | 201° |
| 2026-05-04 17:44 | 43.47337 | -8.63412 | 39046 ft | 466 kts | 202° |
| 2026-05-04 17:44 | 43.41214 | -8.66366 | 39045 ft | 466 kts | 202° |
| 2026-05-04 17:45 | 43.35090 | -8.69315 | 39043 ft | 466 kts | 202° |
| 2026-05-04 17:45 | 43.29001 | -8.72239 | 39041 ft | 466 kts | 202° |
| 2026-05-04 17:46 | 43.22878 | -8.75174 | 39049 ft | 466 kts | 202° |
| 2026-05-04 17:46 | 43.16757 | -8.78102 | 39055 ft | 465 kts | 202° |
| 2026-05-04 17:47 | 43.10672 | -8.81006 | 39056 ft | 465 kts | 202° |
| 2026-05-04 17:47 | 43.04518 | -8.83937 | 39064 ft | 465 kts | 202° |
| 2026-05-04 17:48 | 42.98447 | -8.86823 | 39066 ft | 465 kts | 202° |
| 2026-05-04 17:48 | 42.92342 | -8.89719 | 39070 ft | 464 kts | 202° |
| 2026-05-04 17:49 | 42.86240 | -8.92607 | 39065 ft | 464 kts | 202° |
| 2026-05-04 17:49 | 42.80134 | -8.95490 | 39067 ft | 464 kts | 202° |
| 2026-05-04 17:50 | 42.74040 | -8.98362 | 39067 ft | 463 kts | 202° |
| 2026-05-04 17:50 | 42.67946 | -9.01228 | 39065 ft | 463 kts | 202° |
| 2026-05-04 17:51 | 42.61899 | -9.04067 | 39071 ft | 462 kts | 202° |
| 2026-05-04 17:51 | 42.55815 | -9.06916 | 39068 ft | 462 kts | 202° |
| 2026-05-04 17:52 | 42.49734 | -9.09759 | 39066 ft | 462 kts | 202° |
| 2026-05-04 17:52 | 42.43653 | -9.12596 | 39069 ft | 461 kts | 202° |
| 2026-05-04 17:53 | 42.37577 | -9.15424 | 39075 ft | 461 kts | 202° |
| 2026-05-04 17:53 | 42.31548 | -9.18225 | 39076 ft | 461 kts | 203° |
| 2026-05-04 17:54 | 42.25459 | -9.21048 | 39082 ft | 461 kts | 203° |
| 2026-05-04 17:54 | 42.19387 | -9.23857 | 39076 ft | 461 kts | 203° |
| 2026-05-04 17:55 | 42.13313 | -9.26662 | 39087 ft | 461 kts | 203° |
| 2026-05-04 17:55 | 42.07276 | -9.29444 | 39084 ft | 461 kts | 203° |
| 2026-05-04 17:56 | 42.01203 | -9.32237 | 39087 ft | 461 kts | 203° |
| 2026-05-04 17:56 | 41.96158 | -9.34553 | 39088 ft | 461 kts | 203° |
| 2026-05-04 17:57 | 41.90054 | -9.37240 | 39086 ft | 462 kts | 201° |
| 2026-05-04 17:57 | 41.83868 | -9.39617 | 39092 ft | 462 kts | 200° |
| 2026-05-04 17:58 | 41.77675 | -9.41919 | 39087 ft | 462 kts | 200° |
| 2026-05-04 17:58 | 41.71528 | -9.44227 | 39091 ft | 461 kts | 200° |
| 2026-05-04 17:59 | 41.65333 | -9.46573 | 39093 ft | 461 kts | 200° |
| 2026-05-04 18:00 | 41.56073 | -9.50084 | 39093 ft | 460 kts | 200° |
| 2026-05-04 18:00 | 41.49907 | -9.52415 | 39099 ft | 460 kts | 200° |
| 2026-05-04 18:01 | 41.43785 | -9.54725 | 39093 ft | 460 kts | 201° |
| 2026-05-04 18:01 | 41.37614 | -9.57048 | 39103 ft | 460 kts | 201° |
| 2026-05-04 18:02 | 41.28386 | -9.60512 | 39098 ft | 459 kts | 201° |
| 2026-05-04 18:02 | 41.22238 | -9.62815 | 39100 ft | 459 kts | 201° |
| 2026-05-04 18:03 | 41.16094 | -9.65113 | 39101 ft | 458 kts | 201° |
| 2026-05-04 18:03 | 41.09988 | -9.67391 | 39099 ft | 458 kts | 201° |
| 2026-05-04 18:04 | 41.03853 | -9.69676 | 39105 ft | 458 kts | 201° |
| 2026-05-04 18:05 | 40.94639 | -9.73099 | 39106 ft | 458 kts | 201° |
| 2026-05-04 18:05 | 40.88506 | -9.75371 | 39109 ft | 457 kts | 201° |
| 2026-05-04 18:06 | 40.79317 | -9.78768 | 39109 ft | 457 kts | 201° |
| 2026-05-04 18:06 | 40.73241 | -9.81009 | 39111 ft | 456 kts | 201° |
| 2026-05-04 18:07 | 40.67127 | -9.83260 | 39112 ft | 456 kts | 201° |
| 2026-05-04 18:07 | 40.61019 | -9.85505 | 39112 ft | 456 kts | 201° |
| 2026-05-04 18:08 | 40.54908 | -9.87746 | 39111 ft | 455 kts | 201° |
| 2026-05-04 18:08 | 40.48803 | -9.89981 | 39113 ft | 456 kts | 201° |
| 2026-05-04 18:09 | 40.36574 | -9.94444 | 39115 ft | 456 kts | 202° |
| 2026-05-04 18:10 | 40.30458 | -9.96670 | 39117 ft | 456 kts | 202° |
| 2026-05-04 18:10 | 40.24384 | -9.98877 | 39115 ft | 456 kts | 202° |
| 2026-05-04 18:11 | 40.18262 | -10.01097 | 39116 ft | 455 kts | 202° |
| 2026-05-04 18:11 | 40.12149 | -10.03309 | 39118 ft | 455 kts | 202° |
| 2026-05-04 18:12 | 40.06043 | -10.05516 | 39120 ft | 455 kts | 202° |
| 2026-05-04 18:12 | 39.99974 | -10.07704 | 39121 ft | 454 kts | 202° |
| 2026-05-04 18:13 | 39.93873 | -10.09899 | 39122 ft | 454 kts | 202° |
| 2026-05-04 18:14 | 39.84753 | -10.13173 | 39128 ft | 452 kts | 202° |
| 2026-05-04 18:14 | 39.78733 | -10.15329 | 39119 ft | 451 kts | 202° |
| 2026-05-04 18:15 | 39.66658 | -10.19643 | 39129 ft | 449 kts | 202° |
| 2026-05-04 18:16 | 39.60643 | -10.21787 | 39125 ft | 448 kts | 202° |
| 2026-05-04 18:16 | 39.54633 | -10.23925 | 39123 ft | 447 kts | 202° |
| 2026-05-04 18:17 | 39.45665 | -10.27108 | 39128 ft | 447 kts | 202° |
| 2026-05-04 18:18 | 39.36670 | -10.30292 | 39127 ft | 446 kts | 202° |
| 2026-05-04 18:18 | 39.30689 | -10.32404 | 39123 ft | 445 kts | 202° |
| 2026-05-04 18:19 | 39.21735 | -10.35559 | 39124 ft | 444 kts | 202° |
| 2026-05-04 18:19 | 39.15761 | -10.37660 | 39124 ft | 444 kts | 202° |
| 2026-05-04 18:20 | 39.09802 | -10.39752 | 39140 ft | 444 kts | 202° |
| 2026-05-04 18:20 | 39.03848 | -10.41838 | 39132 ft | 443 kts | 202° |
| 2026-05-04 18:21 | 38.97938 | -10.43905 | 39128 ft | 443 kts | 202° |
| 2026-05-04 18:21 | 38.91992 | -10.45981 | 39130 ft | 443 kts | 202° |
| 2026-05-04 18:22 | 38.86050 | -10.48052 | 39130 ft | 442 kts | 202° |
| 2026-05-04 18:22 | 38.80102 | -10.50122 | 39134 ft | 442 kts | 202° |
| 2026-05-04 18:23 | 38.74157 | -10.52187 | 39132 ft | 442 kts | 202° |
| 2026-05-04 18:23 | 38.68211 | -10.54248 | 39134 ft | 442 kts | 202° |
| 2026-05-04 18:24 | 38.62306 | -10.56293 | 39134 ft | 442 kts | 202° |
| 2026-05-04 18:24 | 38.56370 | -10.58344 | 39134 ft | 442 kts | 202° |
| 2026-05-04 18:25 | 38.50432 | -10.60392 | 39134 ft | 441 kts | 202° |
| 2026-05-04 18:25 | 38.44505 | -10.62433 | 39136 ft | 441 kts | 202° |
| 2026-05-04 18:26 | 38.38571 | -10.64473 | 39136 ft | 441 kts | 202° |
| 2026-05-04 18:26 | 38.32646 | -10.66507 | 39135 ft | 441 kts | 202° |
| 2026-05-04 18:27 | 38.26714 | -10.68539 | 39133 ft | 441 kts | 202° |
| 2026-05-04 18:27 | 38.20832 | -10.70551 | 39139 ft | 440 kts | 201° |
| 2026-05-04 18:28 | 38.14913 | -10.72572 | 39136 ft | 440 kts | 201° |
| 2026-05-04 18:28 | 38.09001 | -10.74588 | 39135 ft | 440 kts | 201° |
| 2026-05-04 18:29 | 38.03085 | -10.76601 | 39139 ft | 439 kts | 201° |
| 2026-05-04 18:29 | 37.97178 | -10.78608 | 39132 ft | 439 kts | 201° |
| 2026-05-04 18:30 | 37.88317 | -10.81612 | 39141 ft | 439 kts | 201° |
| 2026-05-04 18:31 | 37.82463 | -10.83593 | 39142 ft | 438 kts | 201° |
| 2026-05-04 18:31 | 37.76566 | -10.85585 | 39137 ft | 438 kts | 201° |
| 2026-05-04 18:32 | 37.70670 | -10.87573 | 39142 ft | 438 kts | 201° |
| 2026-05-04 18:32 | 37.64784 | -10.89555 | 39141 ft | 437 kts | 201° |
| 2026-05-04 18:33 | 37.58902 | -10.91532 | 39141 ft | 437 kts | 201° |
| 2026-05-04 18:33 | 37.53021 | -10.93505 | 39140 ft | 437 kts | 201° |
| 2026-05-04 18:34 | 37.47149 | -10.95473 | 39141 ft | 436 kts | 201° |
| 2026-05-04 18:34 | 37.41279 | -10.97436 | 39145 ft | 436 kts | 201° |
| 2026-05-04 18:35 | 37.35443 | -10.99385 | 39140 ft | 435 kts | 202° |
| 2026-05-04 18:35 | 37.29588 | -11.01337 | 39150 ft | 435 kts | 202° |
| 2026-05-04 18:36 | 37.23738 | -11.03284 | 39145 ft | 434 kts | 202° |
| 2026-05-04 18:36 | 37.17893 | -11.05227 | 39144 ft | 434 kts | 202° |
| 2026-05-04 18:37 | 37.12089 | -11.07152 | 39143 ft | 433 kts | 202° |
| 2026-05-04 18:37 | 37.06257 | -11.09084 | 39143 ft | 433 kts | 202° |
| 2026-05-04 18:38 | 37.00431 | -11.11011 | 39148 ft | 432 kts | 202° |
| 2026-05-04 18:38 | 36.94617 | -11.12931 | 39147 ft | 432 kts | 202° |
| 2026-05-04 18:39 | 36.88804 | -11.14848 | 39151 ft | 431 kts | 202° |
| 2026-05-04 18:39 | 36.83004 | -11.16757 | 39152 ft | 431 kts | 202° |
| 2026-05-04 18:40 | 36.77209 | -11.18662 | 39147 ft | 430 kts | 202° |
| 2026-05-04 18:40 | 36.71419 | -11.20562 | 39147 ft | 430 kts | 202° |
| 2026-05-04 18:41 | 36.65672 | -11.22445 | 39150 ft | 430 kts | 202° |
| 2026-05-04 18:41 | 36.59888 | -11.24338 | 39152 ft | 429 kts | 202° |
| 2026-05-04 18:42 | 36.54104 | -11.26227 | 39148 ft | 429 kts | 202° |
| 2026-05-04 18:42 | 36.48329 | -11.28110 | 39151 ft | 429 kts | 201° |
| 2026-05-04 18:43 | 36.42557 | -11.29990 | 39147 ft | 429 kts | 202° |
| 2026-05-04 18:43 | 36.36828 | -11.31853 | 39148 ft | 428 kts | 201° |
| 2026-05-04 18:44 | 36.31063 | -11.33724 | 39147 ft | 428 kts | 202° |
| 2026-05-04 18:44 | 36.26227 | -11.35292 | 39147 ft | 428 kts | 202° |
| 2026-05-04 18:45 | 36.20492 | -11.37148 | 39147 ft | 428 kts | 202° |
| 2026-05-04 18:45 | 36.14724 | -11.39013 | 39146 ft | 428 kts | 202° |
| 2026-05-04 18:46 | 36.08955 | -11.40875 | 39144 ft | 427 kts | 202° |
| 2026-05-04 18:46 | 36.03199 | -11.42729 | 39144 ft | 427 kts | 202° |
| 2026-05-04 18:47 | 35.97486 | -11.44682 | 39147 ft | 422 kts | 207° |
| 2026-05-04 18:47 | 35.92214 | -11.47586 | 39149 ft | 416 kts | 212° |
| 2026-05-04 18:48 | 35.87042 | -11.50783 | 39149 ft | 415 kts | 213° |
| 2026-05-04 18:48 | 35.81896 | -11.54030 | 39147 ft | 415 kts | 213° |
| 2026-05-04 18:49 | 35.76751 | -11.57261 | 39145 ft | 415 kts | 213° |
| 2026-05-04 18:49 | 35.71607 | -11.60468 | 39147 ft | 414 kts | 213° |
| 2026-05-04 18:50 | 35.66461 | -11.63664 | 39144 ft | 414 kts | 213° |
| 2026-05-04 18:50 | 35.61323 | -11.66850 | 39142 ft | 413 kts | 213° |
| 2026-05-04 18:51 | 35.56218 | -11.70012 | 39148 ft | 413 kts | 213° |
| 2026-05-04 18:51 | 35.51091 | -11.73183 | 39146 ft | 412 kts | 213° |
| 2026-05-04 18:52 | 35.45971 | -11.76346 | 39151 ft | 412 kts | 212° |
| 2026-05-04 18:52 | 35.40851 | -11.79504 | 39145 ft | 411 kts | 212° |
| 2026-05-04 18:53 | 35.35737 | -11.82654 | 39147 ft | 411 kts | 212° |
| 2026-05-04 18:53 | 35.30616 | -11.85804 | 39146 ft | 411 kts | 212° |
| 2026-05-04 18:54 | 35.25509 | -11.88941 | 39148 ft | 411 kts | 212° |
| 2026-05-04 18:54 | 35.20392 | -11.92079 | 39146 ft | 411 kts | 212° |
| 2026-05-04 18:55 | 35.15315 | -11.95188 | 39146 ft | 411 kts | 212° |
| 2026-05-04 18:55 | 35.07657 | -11.99870 | 39148 ft | 410 kts | 212° |
| 2026-05-04 18:56 | 35.02540 | -12.02992 | 39148 ft | 411 kts | 212° |
| 2026-05-04 18:56 | 34.97423 | -12.06110 | 39147 ft | 411 kts | 212° |
| 2026-05-04 18:57 | 34.92307 | -12.09224 | 39149 ft | 411 kts | 212° |
| 2026-05-04 18:57 | 34.87176 | -12.12342 | 39146 ft | 412 kts | 212° |
| 2026-05-04 18:58 | 34.82044 | -12.15456 | 39147 ft | 412 kts | 212° |
| 2026-05-04 18:58 | 34.76943 | -12.18548 | 39142 ft | 412 kts | 212° |
| 2026-05-04 18:59 | 34.71803 | -12.21658 | 39144 ft | 412 kts | 212° |
| 2026-05-04 18:59 | 34.66661 | -12.24766 | 39144 ft | 412 kts | 212° |
| 2026-05-04 19:00 | 34.61525 | -12.27865 | 39146 ft | 412 kts | 212° |
| 2026-05-04 19:00 | 34.56382 | -12.30964 | 39150 ft | 412 kts | 212° |
| 2026-05-04 19:01 | 34.51242 | -12.34058 | 39149 ft | 412 kts | 212° |
| 2026-05-04 19:01 | 34.46129 | -12.37130 | 39144 ft | 412 kts | 212° |
| 2026-05-04 19:02 | 34.40984 | -12.40218 | 39144 ft | 412 kts | 212° |
| 2026-05-04 19:02 | 34.35841 | -12.43300 | 39137 ft | 412 kts | 212° |
| 2026-05-04 19:03 | 34.30699 | -12.46378 | 39140 ft | 412 kts | 212° |
| 2026-05-04 19:03 | 34.25596 | -12.49428 | 39140 ft | 412 kts | 212° |
| 2026-05-04 19:04 | 34.20463 | -12.52491 | 39135 ft | 411 kts | 212° |
| 2026-05-04 19:04 | 34.15329 | -12.55552 | 39140 ft | 411 kts | 212° |
| 2026-05-04 19:05 | 34.10193 | -12.58609 | 39148 ft | 411 kts | 212° |
| 2026-05-04 19:05 | 34.05059 | -12.61661 | 39135 ft | 411 kts | 212° |
| 2026-05-04 19:06 | 33.99921 | -12.64711 | 39141 ft | 412 kts | 212° |
| 2026-05-04 19:06 | 33.94765 | -12.67767 | 39143 ft | 412 kts | 212° |
| 2026-05-04 19:07 | 33.89653 | -12.70794 | 39141 ft | 412 kts | 212° |
| 2026-05-04 19:07 | 33.84496 | -12.73843 | 39141 ft | 412 kts | 212° |
| 2026-05-04 19:08 | 33.79346 | -12.76884 | 39143 ft | 412 kts | 212° |
| 2026-05-04 19:08 | 33.74186 | -12.79926 | 39142 ft | 413 kts | 212° |
| 2026-05-04 19:09 | 33.69031 | -12.82961 | 39142 ft | 413 kts | 212° |
| 2026-05-04 19:09 | 33.63868 | -12.85997 | 39140 ft | 413 kts | 212° |
| 2026-05-04 19:10 | 33.58708 | -12.89028 | 39139 ft | 413 kts | 212° |
| 2026-05-04 19:10 | 33.53577 | -12.92037 | 39138 ft | 413 kts | 212° |
| 2026-05-04 19:11 | 33.48415 | -12.95060 | 39138 ft | 413 kts | 212° |
| 2026-05-04 19:11 | 33.43257 | -12.98077 | 39135 ft | 412 kts | 212° |
| 2026-05-04 19:12 | 33.35520 | -13.02595 | 39139 ft | 412 kts | 212° |
| 2026-05-04 19:13 | 33.30363 | -13.05601 | 39138 ft | 412 kts | 212° |
| 2026-05-04 19:13 | 33.25213 | -13.08599 | 39134 ft | 412 kts | 212° |
| 2026-05-04 19:14 | 33.20066 | -13.11592 | 39133 ft | 411 kts | 212° |
| 2026-05-04 19:14 | 33.14914 | -13.14583 | 39132 ft | 411 kts | 212° |
| 2026-05-04 19:15 | 33.09764 | -13.17570 | 39132 ft | 411 kts | 212° |
| 2026-05-04 19:15 | 33.04624 | -13.20547 | 39129 ft | 410 kts | 212° |
| 2026-05-04 19:16 | 32.99519 | -13.23499 | 39129 ft | 410 kts | 212° |
| 2026-05-04 19:16 | 32.94384 | -13.26465 | 39127 ft | 410 kts | 212° |
| 2026-05-04 19:17 | 32.89256 | -13.29424 | 39125 ft | 410 kts | 212° |
| 2026-05-04 19:17 | 32.84129 | -13.32377 | 39126 ft | 409 kts | 212° |
| 2026-05-04 19:18 | 32.79009 | -13.35323 | 39127 ft | 409 kts | 212° |
| 2026-05-04 19:18 | 32.73883 | -13.38269 | 39127 ft | 408 kts | 212° |
| 2026-05-04 19:19 | 32.68764 | -13.41207 | 39127 ft | 408 kts | 212° |
| 2026-05-04 19:19 | 32.63654 | -13.44136 | 39128 ft | 408 kts | 212° |
| 2026-05-04 19:20 | 32.58548 | -13.47059 | 39117 ft | 407 kts | 212° |
| 2026-05-04 19:20 | 32.53484 | -13.49955 | 39118 ft | 406 kts | 212° |
| 2026-05-04 19:21 | 32.48391 | -13.52863 | 39118 ft | 406 kts | 212° |
| 2026-05-04 19:21 | 32.43306 | -13.55763 | 39120 ft | 405 kts | 212° |
| 2026-05-04 19:22 | 32.38223 | -13.58658 | 39115 ft | 405 kts | 212° |
| 2026-05-04 19:22 | 32.33156 | -13.61540 | 39119 ft | 404 kts | 212° |
| 2026-05-04 19:23 | 32.28085 | -13.64421 | 39120 ft | 404 kts | 212° |
| 2026-05-04 19:23 | 32.23017 | -13.67297 | 39115 ft | 403 kts | 212° |
| 2026-05-04 19:24 | 32.17954 | -13.70167 | 39115 ft | 403 kts | 212° |
| 2026-05-04 19:24 | 32.12935 | -13.73008 | 39115 ft | 403 kts | 212° |
| 2026-05-04 19:25 | 32.07881 | -13.75865 | 39113 ft | 402 kts | 212° |
| 2026-05-04 19:25 | 32.02838 | -13.78713 | 39112 ft | 402 kts | 212° |
| 2026-05-04 19:26 | 31.97793 | -13.81558 | 39114 ft | 401 kts | 212° |
| 2026-05-04 19:26 | 31.92765 | -13.84390 | 39113 ft | 400 kts | 212° |
| 2026-05-04 19:27 | 31.87743 | -13.87215 | 39113 ft | 399 kts | 212° |
| 2026-05-04 19:27 | 31.82724 | -13.90035 | 39113 ft | 399 kts | 212° |
| 2026-05-04 19:28 | 31.77724 | -13.92842 | 39112 ft | 398 kts | 212° |
| 2026-05-04 19:28 | 31.72730 | -13.95641 | 39110 ft | 397 kts | 212° |
| 2026-05-04 19:29 | 31.67784 | -13.98410 | 39107 ft | 396 kts | 212° |
| 2026-05-04 19:29 | 31.62817 | -14.01188 | 39104 ft | 395 kts | 212° |
| 2026-05-04 19:30 | 31.57844 | -14.03966 | 39109 ft | 395 kts | 212° |
| 2026-05-04 19:30 | 31.52883 | -14.06734 | 39114 ft | 395 kts | 212° |
| 2026-05-04 19:31 | 31.47920 | -14.09499 | 39111 ft | 394 kts | 212° |
| 2026-05-04 19:31 | 31.43795 | -14.11795 | 39111 ft | 394 kts | 212° |
| 2026-05-04 19:32 | 31.38842 | -14.14549 | 39110 ft | 394 kts | 212° |
| 2026-05-04 19:32 | 31.33896 | -14.17296 | 39108 ft | 393 kts | 212° |
| 2026-05-04 19:33 | 31.28947 | -14.20041 | 39105 ft | 393 kts | 212° |
| 2026-05-04 19:33 | 31.23996 | -14.22784 | 39104 ft | 393 kts | 212° |
| 2026-05-04 19:34 | 31.19083 | -14.25504 | 39100 ft | 393 kts | 212° |
| 2026-05-04 19:34 | 31.14142 | -14.28235 | 39101 ft | 393 kts | 212° |
| 2026-05-04 19:35 | 31.09202 | -14.30963 | 39096 ft | 392 kts | 212° |
| 2026-05-04 19:35 | 31.04264 | -14.33686 | 39098 ft | 392 kts | 212° |
| 2026-05-04 19:36 | 30.99330 | -14.36404 | 39097 ft | 392 kts | 212° |
| 2026-05-04 19:36 | 30.94397 | -14.39119 | 39099 ft | 391 kts | 212° |
| 2026-05-04 19:37 | 30.89450 | -14.41699 | 39095 ft | 395 kts | 207° |
| 2026-05-04 19:37 | 30.84202 | -14.43707 | 39096 ft | 397 kts | 205° |
| 2026-05-04 19:38 | 30.78931 | -14.45639 | 39100 ft | 397 kts | 205° |
| 2026-05-04 19:38 | 30.73657 | -14.47578 | 39095 ft | 397 kts | 205° |
| 2026-05-04 19:39 | 30.68396 | -14.49514 | 39095 ft | 396 kts | 205° |
| 2026-05-04 19:39 | 30.63141 | -14.51447 | 39093 ft | 396 kts | 205° |
| 2026-05-04 19:40 | 30.57894 | -14.53375 | 39097 ft | 395 kts | 205° |
| 2026-05-04 19:40 | 30.52651 | -14.55299 | 39095 ft | 395 kts | 205° |
| 2026-05-04 19:41 | 30.47412 | -14.57220 | 39093 ft | 395 kts | 205° |
| 2026-05-04 19:41 | 30.42209 | -14.59126 | 39088 ft | 394 kts | 205° |
| 2026-05-04 19:42 | 30.36977 | -14.61040 | 39097 ft | 394 kts | 205° |
| 2026-05-04 19:42 | 30.31753 | -14.62949 | 39100 ft | 393 kts | 205° |
| 2026-05-04 19:43 | 30.26530 | -14.64855 | 39089 ft | 393 kts | 205° |
| 2026-05-04 19:43 | 30.21350 | -14.66744 | 39094 ft | 393 kts | 205° |
| 2026-05-04 19:44 | 30.16140 | -14.68642 | 39092 ft | 392 kts | 205° |
| 2026-05-04 19:44 | 30.10937 | -14.70534 | 39099 ft | 392 kts | 205° |
| 2026-05-04 19:45 | 30.05734 | -14.72425 | 39092 ft | 392 kts | 205° |
| 2026-05-04 19:45 | 30.00540 | -14.74311 | 39094 ft | 391 kts | 205° |
| 2026-05-04 19:46 | 29.95348 | -14.76193 | 39098 ft | 391 kts | 205° |
| 2026-05-04 19:46 | 29.90152 | -14.78076 | 39096 ft | 391 kts | 205° |
| 2026-05-04 19:47 | 29.84967 | -14.79951 | 39096 ft | 390 kts | 205° |
| 2026-05-04 19:47 | 29.79804 | -14.81817 | 39095 ft | 390 kts | 205° |
| 2026-05-04 19:48 | 29.74623 | -14.83688 | 39094 ft | 390 kts | 205° |
| 2026-05-04 19:48 | 29.69444 | -14.85556 | 39095 ft | 390 kts | 205° |
| 2026-05-04 19:49 | 29.64263 | -14.87422 | 39094 ft | 389 kts | 205° |
| 2026-05-04 19:49 | 29.59123 | -14.89272 | 39097 ft | 389 kts | 205° |
| 2026-05-04 19:50 | 29.53952 | -14.91131 | 39097 ft | 389 kts | 205° |
| 2026-05-04 19:50 | 29.48784 | -14.92986 | 39091 ft | 389 kts | 205° |
| 2026-05-04 19:51 | 29.43626 | -14.94836 | 39093 ft | 388 kts | 205° |
| 2026-05-04 19:51 | 29.38471 | -14.96684 | 39094 ft | 388 kts | 205° |
| 2026-05-04 19:52 | 29.33331 | -14.98521 | 38966 ft | 381 kts | 205° |
| 2026-05-04 19:52 | 29.30821 | -14.99414 | 38728 ft | 372 kts | 205° |
| 2026-05-04 19:52 | 29.28374 | -15.00285 | 38423 ft | 364 kts | 205° |
| 2026-05-04 19:52 | 29.25990 | -15.01137 | 37956 ft | 361 kts | 205° |
| 2026-05-04 19:53 | 29.23589 | -15.01998 | 37392 ft | 361 kts | 205° |
| 2026-05-04 19:53 | 29.21187 | -15.02859 | 36824 ft | 362 kts | 205° |
| 2026-05-04 19:53 | 29.18783 | -15.03719 | 36236 ft | 363 kts | 205° |
| 2026-05-04 19:53 | 29.16361 | -15.04585 | 35608 ft | 366 kts | 205° |
| 2026-05-04 19:54 | 29.13922 | -15.05457 | 34940 ft | 370 kts | 205° |
| 2026-05-04 19:54 | 29.11462 | -15.06333 | 34462 ft | 368 kts | 205° |
| 2026-05-04 19:54 | 29.09020 | -15.07200 | 33998 ft | 367 kts | 205° |
| 2026-05-04 19:54 | 29.06583 | -15.08067 | 33450 ft | 366 kts | 205° |
| 2026-05-04 19:55 | 29.04151 | -15.08930 | 32954 ft | 364 kts | 205° |
| 2026-05-04 19:55 | 29.01735 | -15.09789 | 32455 ft | 363 kts | 205° |
| 2026-05-04 19:55 | 28.99327 | -15.10644 | 31965 ft | 361 kts | 205° |
| 2026-05-04 19:55 | 28.96933 | -15.11495 | 31468 ft | 360 kts | 205° |
| 2026-05-04 19:56 | 28.94545 | -15.12343 | 30971 ft | 359 kts | 205° |
| 2026-05-04 19:56 | 28.92187 | -15.13180 | 30466 ft | 359 kts | 205° |
| 2026-05-04 19:56 | 28.89799 | -15.14027 | 29922 ft | 359 kts | 205° |
| 2026-05-04 19:56 | 28.87422 | -15.14869 | 29375 ft | 356 kts | 205° |
| 2026-05-04 19:57 | 28.85064 | -15.15704 | 28877 ft | 353 kts | 205° |
| 2026-05-04 19:57 | 28.82717 | -15.16534 | 28345 ft | 351 kts | 205° |
| 2026-05-04 19:57 | 28.80390 | -15.17358 | 27833 ft | 349 kts | 205° |
| 2026-05-04 19:57 | 28.78072 | -15.18178 | 27299 ft | 348 kts | 205° |
| 2026-05-04 19:58 | 28.75753 | -15.18999 | 26774 ft | 347 kts | 205° |
| 2026-05-04 19:58 | 28.73451 | -15.19813 | 26270 ft | 346 kts | 205° |
| 2026-05-04 19:58 | 28.71178 | -15.20617 | 25753 ft | 345 kts | 205° |
| 2026-05-04 19:58 | 28.68884 | -15.21427 | 25228 ft | 345 kts | 205° |
| 2026-05-04 19:59 | 28.66564 | -15.22247 | 24696 ft | 345 kts | 205° |
| 2026-05-04 19:59 | 28.64296 | -15.23047 | 24199 ft | 345 kts | 205° |
| 2026-05-04 19:59 | 28.61937 | -15.23648 | 23661 ft | 353 kts | 197° |
| 2026-05-04 19:59 | 28.59475 | -15.23942 | 23029 ft | 356 kts | 193° |
| 2026-05-04 20:00 | 28.57003 | -15.24159 | 22478 ft | 355 kts | 193° |
| 2026-05-04 20:00 | 28.54551 | -15.24365 | 21945 ft | 352 kts | 193° |
| 2026-05-04 20:00 | 28.52114 | -15.24574 | 21394 ft | 350 kts | 192° |
| 2026-05-04 20:00 | 28.49686 | -15.24785 | 20841 ft | 348 kts | 192° |
| 2026-05-04 20:01 | 28.47274 | -15.24998 | 20299 ft | 347 kts | 192° |
| 2026-05-04 20:01 | 28.44876 | -15.25211 | 19752 ft | 345 kts | 192° |
| 2026-05-04 20:01 | 28.42486 | -15.25424 | 19193 ft | 344 kts | 191° |
| 2026-05-04 20:01 | 28.40103 | -15.25637 | 18647 ft | 343 kts | 191° |
| 2026-05-04 20:02 | 28.37735 | -15.25848 | 18079 ft | 341 kts | 191° |
| 2026-05-04 20:02 | 28.35378 | -15.26058 | 17523 ft | 338 kts | 191° |
| 2026-05-04 20:02 | 28.33042 | -15.26265 | 17005 ft | 334 kts | 191° |
| 2026-05-04 20:02 | 28.30766 | -15.26467 | 16479 ft | 331 kts | 190° |
| 2026-05-04 20:03 | 28.28482 | -15.26671 | 15950 ft | 328 kts | 190° |
| 2026-05-04 20:03 | 28.26209 | -15.26874 | 15425 ft | 326 kts | 190° |
| 2026-05-04 20:03 | 28.23956 | -15.27075 | 14905 ft | 324 kts | 190° |
| 2026-05-04 20:03 | 28.21718 | -15.27274 | 14396 ft | 322 kts | 190° |
| 2026-05-04 20:04 | 28.19497 | -15.27473 | 13877 ft | 320 kts | 189° |
| 2026-05-04 20:04 | 28.17275 | -15.27670 | 13354 ft | 317 kts | 189° |
| 2026-05-04 20:04 | 28.15082 | -15.27865 | 12863 ft | 314 kts | 189° |
| 2026-05-04 20:04 | 28.12913 | -15.28058 | 12363 ft | 311 kts | 189° |
| 2026-05-04 20:05 | 28.10766 | -15.28249 | 11890 ft | 308 kts | 188° |
| 2026-05-04 20:05 | 28.08659 | -15.28437 | 11388 ft | 307 kts | 188° |
| 2026-05-04 20:05 | 28.06508 | -15.28628 | 10921 ft | 305 kts | 188° |
| 2026-05-04 20:05 | 28.04434 | -15.28811 | 10703 ft | 294 kts | 188° |
| 2026-05-04 20:06 | 28.02436 | -15.28987 | 10299 ft | 292 kts | 188° |
| 2026-05-04 20:06 | 28.00387 | -15.29171 | 9705 ft | 296 kts | 187° |
| 2026-05-04 20:06 | 27.98331 | -15.29354 | 9217 ft | 295 kts | 187° |
| 2026-05-04 20:06 | 27.96296 | -15.29558 | 8748 ft | 292 kts | 191° |
| 2026-05-04 20:07 | 27.94316 | -15.29963 | 8357 ft | 286 kts | 194° |
| 2026-05-04 20:07 | 27.92377 | -15.30446 | 7948 ft | 283 kts | 195° |
| 2026-05-04 20:07 | 27.90464 | -15.30938 | 7529 ft | 281 kts | 195° |
| 2026-05-04 20:07 | 27.88564 | -15.31427 | 7119 ft | 279 kts | 195° |
| 2026-05-04 20:08 | 27.86674 | -15.31911 | 6711 ft | 277 kts | 195° |
| 2026-05-04 20:08 | 27.84796 | -15.32392 | 6306 ft | 276 kts | 195° |
| 2026-05-04 20:08 | 27.82950 | -15.32865 | 5913 ft | 275 kts | 194° |
| 2026-05-04 20:08 | 27.81117 | -15.33333 | 5744 ft | 264 kts | 194° |
| 2026-05-04 20:09 | 27.79364 | -15.33778 | 5603 ft | 253 kts | 194° |
| 2026-05-04 20:09 | 27.77679 | -15.34207 | 5471 ft | 243 kts | 194° |
| 2026-05-04 20:09 | 27.76052 | -15.34621 | 5212 ft | 239 kts | 194° |
| 2026-05-04 20:09 | 27.74409 | -15.35042 | 4784 ft | 244 kts | 194° |
| 2026-05-04 20:10 | 27.72857 | -15.35761 | 4464 ft | 240 kts | 218° |
| 2026-05-04 20:10 | 27.71878 | -15.37207 | 4121 ft | 232 kts | 253° |
| 2026-05-04 20:10 | 27.71830 | -15.38983 | 3712 ft | 227 kts | 286° |
| 2026-05-04 20:10 | 27.72324 | -15.40648 | 3450 ft | 218 kts | 294° |
| 2026-05-04 20:11 | 27.72933 | -15.42179 | 3285 ft | 211 kts | 304° |
| 2026-05-04 20:11 | 27.73958 | -15.43342 | 3099 ft | 210 kts | 330° |
| 2026-05-04 20:11 | 27.75208 | -15.44087 | 3004 ft | 196 kts | 337° |
| 2026-05-04 20:11 | 27.76426 | -15.44710 | 2987 ft | 194 kts | 338° |
| 2026-05-04 20:12 | 27.77709 | -15.45093 | 2980 ft | 191 kts | 359° |
| 2026-05-04 20:12 | 27.79016 | -15.44885 | 2800 ft | 189 kts | 17° |
| 2026-05-04 20:12 | 27.80240 | -15.44380 | 2535 ft | 185 kts | 21° |
| 2026-05-04 20:12 | 27.81413 | -15.43864 | 2295 ft | 175 kts | 21° |
| 2026-05-04 20:13 | 27.82509 | -15.43382 | 2066 ft | 160 kts | 21° |
| 2026-05-04 20:13 | 27.83488 | -15.42953 | 1850 ft | 143 kts | 21° |
| 2026-05-04 20:13 | 27.84367 | -15.42564 | 1654 ft | 128 kts | 21° |
| 2026-05-04 20:13 | 27.85172 | -15.42209 | 1501 ft | 122 kts | 21° |
| 2026-05-04 20:14 | 27.85958 | -15.41860 | 1341 ft | 121 kts | 21° |
| 2026-05-04 20:14 | 27.86737 | -15.41514 | 1196 ft | 122 kts | 21° |
| 2026-05-04 20:14 | 27.87528 | -15.41164 | 1024 ft | 122 kts | 22° |
| 2026-05-04 20:14 | 27.88321 | -15.40812 | 875 ft | 122 kts | 21° |
| 2026-05-04 20:15 | 27.89100 | -15.40467 | 708 ft | 119 kts | 21° |
| 2026-05-04 20:15 | 27.89876 | -15.40123 | 556 ft | 120 kts | 19° |
| 2026-05-04 20:15 | 27.90653 | -15.39779 | 396 ft | 119 kts | 21° |
| 2026-05-04 20:15 | 27.91414 | -15.39438 | 248 ft | 116 kts | 21° |
| 2026-05-04 20:16 | 27.92170 | -15.39105 | 102 ft | 116 kts | 21° |
| 2026-05-04 20:16 | 27.92850 | -15.38810 | 63 ft | 82 kts | 21° |
| 2026-05-04 20:16 | 27.93129 | -15.38718 | 68 ft | 27 kts | 359° |
| 2026-05-04 20:16 | 27.93291 | -15.38742 | 74 ft | 13 kts | 351° |
| 2026-05-04 20:17 | 27.93344 | -15.38750 | 77 ft | 5 kts | 352° |
| 2026-05-04 20:17 | 27.93361 | -15.38753 | 78 ft | 3 kts | 352° |
| 2026-05-04 20:17 | 27.93371 | -15.38755 | 78 ft | 3 kts | 351° |
| 2026-05-04 20:17 | 27.93419 | -15.38783 | 81 ft | 11 kts | 304° |
| 2026-05-04 20:18 | 27.93440 | -15.38844 | 87 ft | 13 kts | 293° |
| 2026-05-04 20:18 | 27.93540 | -15.38867 | 89 ft | 8 kts | 346° |
| 2026-05-04 20:18 | 27.93560 | -15.38898 | 88 ft | 10 kts | 291° |
| 2026-05-04 20:18 | 27.93575 | -15.38940 | 89 ft | 0 kts | 291° |